Time;durP1;ratioP1;P1;durP2;ratioP2;P2;SDS_P1;SDS_P2;PMS_P1;PMS_P2;Temp;Humidity;BMP_temperature;BMP_pressure;BME280_temperature;BME280_humidity;BME280_pressure;Samples;Min_cycle;Max_cycle;Signal;HPM_P1;HPM_P2
2024/01/15 00:01:11;;;;;;;21.48;10.10;;;;;;;;;;6302418;22;19998;-83
2024/01/15 00:03:56;;;;;;;20.95;8.73;;;;;;;;;;6302902;22;20082;-82
2024/01/15 00:06:41;;;;;;;19.15;9.45;;;;;;;;;;6300465;22;20176;-82
2024/01/15 00:09:27;;;;;;;17.98;8.82;;;;;;;;;;6300527;22;20487;-81
2024/01/15 00:12:12;;;;;;;18.63;7.97;;;;;;;;;;6297658;22;20023;-82
2024/01/15 00:14:57;;;;;;;21.98;10.05;;;;;;;;;;6295761;22;20346;-83
2024/01/15 00:17:43;;;;;;;23.05;10.23;;;;;;;;;;6296029;22;20467;-82
2024/01/15 00:20:28;;;;;;;22.10;9.45;;;;;;;;;;6294770;22;20074;-81
2024/01/15 00:23:13;;;;;;;19.35;10.63;;;;;;;;;;6275051;22;20002;-82
2024/01/15 00:25:58;;;;;;;24.00;11.63;;;;;;;;;;6303682;22;19995;-82
2024/01/15 00:28:44;;;;;;;20.80;8.73;;;;;;;;;;6302464;22;20010;-82
2024/01/15 00:31:29;;;;;;;21.38;8.73;;;;;;;;;;6301164;22;19995;-82
2024/01/15 00:34:15;;;;;;;20.55;8.45;;;;;;;;;;6300986;22;20372;-83
2024/01/15 00:37:03;;;;;;;18.52;9.05;;;;;;;;;;6302263;22;19991;-82
2024/01/15 00:39:48;;;;;;;18.27;8.32;;;;;;;;;;6299705;22;20022;-83
2024/01/15 00:42:37;;;;;;;16.10;8.80;;;;;;;;;;6301246;22;20381;-84
2024/01/15 00:45:22;;;;;;;22.35;9.73;;;;;;;;;;6300157;22;20343;-83
2024/01/15 00:48:07;;;;;;;19.13;7.78;;;;;;;;;;6302639;22;20029;-83
2024/01/15 00:50:54;;;;;;;17.02;7.00;;;;;;;;;;6301863;22;19995;-83
2024/01/15 00:53:42;;;;;;;17.27;9.00;;;;;;;;;;6297622;22;20408;-83
2024/01/15 00:56:27;;;;;;;23.08;10.48;;;;;;;;;;6320793;22;20074;-83
2024/01/15 00:59:14;;;;;;;17.50;8.27;;;;;;;;;;6298637;22;19995;-83
2024/01/15 01:02:00;;;;;;;18.80;7.70;;;;;;;;;;6296220;22;20011;-82
2024/01/15 01:04:45;;;;;;;20.15;9.10;;;;;;;;;;6298843;22;19995;-83
2024/01/15 01:07:30;;;;;;;18.10;7.18;;;;;;;;;;6295996;22;20070;-84
2024/01/15 01:10:15;;;;;;;19.88;7.70;;;;;;;;;;6297049;22;20378;-83
2024/01/15 01:13:01;;;;;;;20.80;8.93;;;;;;;;;;6323975;22;20347;-82
2024/01/15 01:15:46;;;;;;;17.67;8.65;;;;;;;;;;6302562;22;19995;-84
2024/01/15 01:18:31;;;;;;;19.58;8.48;;;;;;;;;;6302081;22;20454;-83
2024/01/15 01:21:16;;;;;;;22.63;9.30;;;;;;;;;;6299867;22;20003;-82
2024/01/15 01:24:02;;;;;;;21.52;9.48;;;;;;;;;;6301757;22;20639;-82
2024/01/15 01:26:47;;;;;;;18.88;7.70;;;;;;;;;;6296427;22;20006;-82
2024/01/15 01:32:46;;;;;;;21.05;8.90;;;;;;;;;;6304198;22;20006;-81
2024/01/15 01:35:31;;;;;;;20.60;9.85;;;;;;;;;;6302821;22;20006;-82
2024/01/15 01:38:16;;;;;;;21.55;8.57;;;;;;;;;;6305546;22;20052;-83
2024/01/15 01:41:02;;;;;;;16.42;7.40;;;;;;;;;;6320220;22;19999;-82
2024/01/15 01:43:47;;;;;;;18.33;7.88;;;;;;;;;;6304800;22;19995;-80
2024/01/15 01:46:33;;;;;;;21.02;8.48;;;;;;;;;;6297979;22;19995;-82
2024/01/15 01:52:29;;;;;;;17.85;7.38;;;;;;;;;;6197116;23;20035;-83
2024/01/15 01:55:14;;;;;;;17.42;8.52;;;;;;;;;;6299839;22;20042;-81
2024/01/15 01:58:00;;;;;;;18.40;8.43;;;;;;;;;;6312987;22;20010;-83
2024/01/15 02:00:46;;;;;;;20.65;8.63;;;;;;;;;;6304723;22;20010;-85
2024/01/15 02:03:31;;;;;;;20.23;7.50;;;;;;;;;;6282221;22;19999;-83
2024/01/15 02:06:17;;;;;;;19.17;8.50;;;;;;;;;;6303882;22;20061;-84
2024/01/15 02:09:03;;;;;;;17.55;6.90;;;;;;;;;;6303379;22;20343;-83
2024/01/15 02:11:48;;;;;;;20.35;7.80;;;;;;;;;;6304784;22;20072;-85
2024/01/15 02:14:33;;;;;;;18.23;7.30;;;;;;;;;;6302218;22;20002;-83
2024/01/15 02:17:19;;;;;;;18.40;7.72;;;;;;;;;;6302319;22;19997;-82
2024/01/15 02:20:04;;;;;;;19.20;7.57;;;;;;;;;;6303954;22;20702;-83
2024/01/15 02:22:49;;;;;;;20.77;7.82;;;;;;;;;;6301479;22;20085;-84
2024/01/15 02:25:35;;;;;;;15.63;6.60;;;;;;;;;;6296129;22;20003;-83
2024/01/15 02:28:20;;;;;;;21.17;7.55;;;;;;;;;;6296686;22;20438;-80
2024/01/15 02:31:06;;;;;;;18.65;8.05;;;;;;;;;;6297085;22;20423;-82
2024/01/15 02:33:51;;;;;;;15.25;6.72;;;;;;;;;;6299762;22;20423;-83
2024/01/15 02:36:36;;;;;;;18.08;7.95;;;;;;;;;;6303736;22;20026;-83
2024/01/15 02:39:21;;;;;;;15.93;7.53;;;;;;;;;;6301478;22;20431;-82
2024/01/15 02:42:07;;;;;;;13.43;6.88;;;;;;;;;;6302622;22;20006;-82
2024/01/15 02:44:52;;;;;;;17.42;7.03;;;;;;;;;;6304162;22;19999;-82
2024/01/15 02:47:37;;;;;;;16.48;7.50;;;;;;;;;;6301344;22;19994;-82
2024/01/15 02:50:22;;;;;;;15.85;7.10;;;;;;;;;;6302279;22;20076;-82
2024/01/15 02:53:08;;;;;;;18.42;7.82;;;;;;;;;;6303170;22;20037;-82
2024/01/15 02:55:53;;;;;;;19.35;7.32;;;;;;;;;;6303820;22;20431;-82
2024/01/15 02:58:38;;;;;;;14.68;7.07;;;;;;;;;;6299227;22;20002;-84
2024/01/15 03:01:23;;;;;;;19.55;8.13;;;;;;;;;;6298291;22;20006;-83
2024/01/15 03:04:09;;;;;;;16.67;6.78;;;;;;;;;;6303596;22;20007;-84
2024/01/15 03:06:54;;;;;;;19.27;8.48;;;;;;;;;;6308229;22;20330;-83
2024/01/15 03:09:39;;;;;;;15.18;6.40;;;;;;;;;;6307978;22;20017;-83
2024/01/15 03:12:24;;;;;;;15.32;6.88;;;;;;;;;;6328280;22;20011;-83
2024/01/15 03:15:10;;;;;;;15.63;7.03;;;;;;;;;;6305865;22;19995;-84
2024/01/15 03:17:55;;;;;;;17.90;8.35;;;;;;;;;;6307402;22;20020;-83
2024/01/15 03:20:40;;;;;;;18.27;8.02;;;;;;;;;;6307767;22;19998;-84
2024/01/15 03:23:26;;;;;;;15.23;6.15;;;;;;;;;;6305331;22;20010;-83
2024/01/15 03:26:11;;;;;;;17.50;7.22;;;;;;;;;;6308018;22;19998;-83
2024/01/15 03:28:56;;;;;;;15.68;7.38;;;;;;;;;;6307061;22;19995;-83
2024/01/15 03:31:41;;;;;;;16.13;8.45;;;;;;;;;;6305031;22;19998;-83
2024/01/15 03:34:27;;;;;;;18.70;7.57;;;;;;;;;;6305796;22;19991;-83
2024/01/15 03:37:12;;;;;;;18.05;7.22;;;;;;;;;;6305388;22;20370;-83
2024/01/15 03:39:57;;;;;;;20.10;7.28;;;;;;;;;;6301118;22;19995;-83
2024/01/15 03:42:43;;;;;;;18.75;7.18;;;;;;;;;;6300421;22;20010;-82
2024/01/15 03:45:28;;;;;;;17.98;7.30;;;;;;;;;;6301776;22;19994;-82
2024/01/15 03:48:13;;;;;;;20.15;9.00;;;;;;;;;;6300917;22;19995;-82
2024/01/15 03:50:58;;;;;;;17.58;7.38;;;;;;;;;;6301708;22;19995;-82
2024/01/15 03:53:44;;;;;;;17.90;7.45;;;;;;;;;;6305314;22;20431;-82
2024/01/15 03:56:29;;;;;;;17.27;7.55;;;;;;;;;;6306263;22;20484;-82
2024/01/15 03:59:14;;;;;;;18.73;7.40;;;;;;;;;;6305149;22;20005;-82
2024/01/15 04:02:00;;;;;;;15.70;7.57;;;;;;;;;;6305644;22;19999;-82
2024/01/15 04:04:45;;;;;;;16.10;7.50;;;;;;;;;;6304095;22;19998;-81
2024/01/15 04:07:30;;;;;;;15.73;8.30;;;;;;;;;;6299869;22;20050;-81
2024/01/15 04:10:15;;;;;;;15.98;6.80;;;;;;;;;;6303401;22;20229;-81
2024/01/15 04:13:03;;;;;;;17.45;6.60;;;;;;;;;;6301941;22;20043;-83
2024/01/15 04:15:49;;;;;;;17.75;8.05;;;;;;;;;;6303074;22;20006;-85
2024/01/15 04:18:34;;;;;;;13.57;5.90;;;;;;;;;;6298070;22;20261;-85
2024/01/15 04:21:19;;;;;;;13.90;6.72;;;;;;;;;;6296217;22;19994;-85
2024/01/15 04:24:04;;;;;;;16.17;7.65;;;;;;;;;;6296591;22;20040;-83
2024/01/15 04:26:49;;;;;;;13.30;6.18;;;;;;;;;;6298279;22;20052;-83
2024/01/15 04:29:37;;;;;;;13.27;6.20;;;;;;;;;;6297065;22;19994;-84
2024/01/15 04:32:22;;;;;;;18.30;7.70;;;;;;;;;;6298894;22;20003;-82
2024/01/15 04:35:07;;;;;;;17.23;6.55;;;;;;;;;;6301688;22;20005;-83
2024/01/15 04:37:53;;;;;;;15.93;6.60;;;;;;;;;;6303315;22;20007;-85
2024/01/15 04:40:38;;;;;;;18.05;7.70;;;;;;;;;;6300671;22;20005;-85
2024/01/15 04:43:23;;;;;;;18.90;7.65;;;;;;;;;;6300115;22;20007;-85
2024/01/15 04:46:08;;;;;;;13.63;6.75;;;;;;;;;;6303121;22;19999;-83
2024/01/15 04:48:53;;;;;;;16.38;6.82;;;;;;;;;;6308928;22;20386;-83
2024/01/15 04:51:39;;;;;;;16.95;7.80;;;;;;;;;;6300885;22;21011;-83
2024/01/15 04:54:24;;;;;;;17.05;8.10;;;;;;;;;;6300792;22;20081;-84
2024/01/15 04:57:09;;;;;;;17.73;7.57;;;;;;;;;;6277791;22;20002;-83
2024/01/15 04:59:54;;;;;;;16.20;7.15;;;;;;;;;;6296272;22;19999;-84
2024/01/15 05:02:43;;;;;;;15.73;6.28;;;;;;;;;;6296558;22;20003;-84
2024/01/15 05:05:28;;;;;;;17.23;6.95;;;;;;;;;;6295941;22;19995;-84
2024/01/15 05:08:13;;;;;;;17.73;7.50;;;;;;;;;;6296440;22;20364;-83
2024/01/15 05:10:58;;;;;;;16.85;7.53;;;;;;;;;;6303095;22;20346;-83
2024/01/15 05:13:43;;;;;;;21.33;7.82;;;;;;;;;;6303302;22;20011;-83
2024/01/15 05:16:32;;;;;;;17.40;7.78;;;;;;;;;;6282443;22;20002;-82
2024/01/15 05:19:17;;;;;;;18.48;8.23;;;;;;;;;;6300193;22;19999;-83
2024/01/15 05:22:03;;;;;;;17.33;7.85;;;;;;;;;;6302914;22;20088;-82
2024/01/15 05:24:48;;;;;;;21.33;8.05;;;;;;;;;;6302402;22;19991;-83
2024/01/15 05:27:34;;;;;;;19.42;8.38;;;;;;;;;;6301131;22;20005;-84
2024/01/15 05:30:19;;;;;;;19.88;8.38;;;;;;;;;;6301346;22;19998;-80
2024/01/15 05:33:04;;;;;;;17.35;8.02;;;;;;;;;;6305567;22;20002;-82
2024/01/15 05:35:50;;;;;;;19.15;8.40;;;;;;;;;;6305182;22;20009;-84
2024/01/15 05:38:35;;;;;;;17.75;7.65;;;;;;;;;;6303521;22;19999;-83
2024/01/15 05:41:20;;;;;;;19.45;8.13;;;;;;;;;;6300689;22;19999;-82
2024/01/15 05:44:06;;;;;;;17.45;7.82;;;;;;;;;;6300864;22;20365;-82
2024/01/15 05:46:51;;;;;;;18.38;8.00;;;;;;;;;;6301579;22;20078;-83
2024/01/15 05:49:36;;;;;;;21.00;8.45;;;;;;;;;;6313866;22;20105;-82
2024/01/15 05:52:22;;;;;;;17.33;8.35;;;;;;;;;;6310426;22;20006;-83
2024/01/15 05:55:07;;;;;;;15.70;7.68;;;;;;;;;;6302947;22;20082;-84
2024/01/15 05:57:52;;;;;;;15.48;7.78;;;;;;;;;;6305467;22;19995;-83
2024/01/15 06:00:38;;;;;;;17.52;7.82;;;;;;;;;;6307497;22;20029;-82
2024/01/15 06:03:23;;;;;;;15.55;7.60;;;;;;;;;;6313259;22;20010;-81
2024/01/15 06:06:08;;;;;;;15.45;7.43;;;;;;;;;;6324773;22;20017;-84
2024/01/15 06:08:54;;;;;;;16.40;7.57;;;;;;;;;;6328031;22;19998;-84
2024/01/15 06:11:39;;;;;;;17.35;7.47;;;;;;;;;;6322866;22;20449;-82
2024/01/15 06:14:24;;;;;;;15.18;7.03;;;;;;;;;;6305301;22;19999;-83
2024/01/15 06:17:09;;;;;;;17.17;7.20;;;;;;;;;;6307294;22;20326;-81
2024/01/15 06:19:55;;;;;;;16.90;7.60;;;;;;;;;;6305256;22;19995;-82
2024/01/15 06:22:40;;;;;;;15.32;6.50;;;;;;;;;;6301972;22;20170;-82
2024/01/15 06:25:25;;;;;;;14.75;6.60;;;;;;;;;;6300041;22;19998;-82
2024/01/15 06:28:10;;;;;;;19.20;6.95;;;;;;;;;;6280377;22;20002;-82
2024/01/15 06:30:56;;;;;;;13.10;6.13;;;;;;;;;;6299603;22;19994;-82
2024/01/15 06:33:42;;;;;;;12.80;5.93;;;;;;;;;;6297305;22;20433;-82
2024/01/15 06:36:27;;;;;;;15.07;6.60;;;;;;;;;;6302512;22;20026;-82
2024/01/15 06:39:12;;;;;;;18.25;6.72;;;;;;;;;;6301898;22;20082;-82
2024/01/15 06:41:58;;;;;;;14.05;7.07;;;;;;;;;;6303783;22;20007;-82
2024/01/15 06:44:43;;;;;;;21.05;7.50;;;;;;;;;;6304238;22;20006;-84
2024/01/15 06:47:28;;;;;;;16.00;7.07;;;;;;;;;;6301831;22;19994;-84
2024/01/15 06:50:13;;;;;;;16.42;6.32;;;;;;;;;;6304519;22;19995;-83
2024/01/15 06:52:59;;;;;;;15.30;7.18;;;;;;;;;;6303563;22;20006;-82
2024/01/15 06:55:44;;;;;;;17.10;7.22;;;;;;;;;;6304875;22;20132;-82
2024/01/15 06:58:32;;;;;;;13.02;6.85;;;;;;;;;;6301717;22;20402;-82
2024/01/15 07:01:17;;;;;;;12.65;6.55;;;;;;;;;;6303549;22;20331;-83
2024/01/15 07:04:03;;;;;;;13.52;5.85;;;;;;;;;;6304202;22;20276;-82
2024/01/15 07:06:48;;;;;;;18.13;6.35;;;;;;;;;;6299237;22;20027;-84
2024/01/15 07:09:34;;;;;;;11.32;5.43;;;;;;;;;;6299057;22;20003;-83
2024/01/15 07:12:19;;;;;;;14.40;6.75;;;;;;;;;;6297571;22;20023;-86
2024/01/15 07:15:06;;;;;;;13.63;6.20;;;;;;;;;;6297335;22;20483;-83
2024/01/15 07:17:52;;;;;;;13.63;6.22;;;;;;;;;;6278806;22;20036;-83
2024/01/15 07:20:37;;;;;;;13.32;6.45;;;;;;;;;;6299807;22;20018;-82
2024/01/15 07:23:22;;;;;;;14.43;6.50;;;;;;;;;;6302869;22;20002;-83
2024/01/15 07:26:07;;;;;;;11.85;5.05;;;;;;;;;;6304940;22;20001;-82
2024/01/15 07:28:52;;;;;;;15.95;6.85;;;;;;;;;;6304034;22;19998;-82
2024/01/15 07:31:38;;;;;;;15.63;6.72;;;;;;;;;;6304452;22;20036;-82
2024/01/15 07:34:23;;;;;;;14.10;6.65;;;;;;;;;;6302106;22;19998;-82
2024/01/15 07:37:08;;;;;;;15.10;7.00;;;;;;;;;;6303434;22;20001;-82
2024/01/15 07:39:53;;;;;;;12.63;6.80;;;;;;;;;;6303390;22;19998;-82
2024/01/15 07:42:39;;;;;;;15.40;7.45;;;;;;;;;;6296518;22;20516;-82
2024/01/15 07:45:24;;;;;;;16.52;7.38;;;;;;;;;;6296477;22;19994;-81
2024/01/15 07:48:09;;;;;;;15.13;7.43;;;;;;;;;;6297108;22;20056;-82
2024/01/15 07:50:55;;;;;;;13.88;6.78;;;;;;;;;;6298629;22;19999;-81
2024/01/15 07:53:40;;;;;;;15.35;6.32;;;;;;;;;;6299148;22;20002;-82
2024/01/15 07:56:27;;;;;;;14.15;6.45;;;;;;;;;;6303875;22;20079;-85
2024/01/15 07:59:12;;;;;;;16.25;6.30;;;;;;;;;;6301290;22;20009;-82
2024/01/15 08:01:59;;;;;;;15.40;5.95;;;;;;;;;;6302519;22;20490;-85
2024/01/15 08:04:44;;;;;;;14.45;5.60;;;;;;;;;;6302775;22;20074;-84
2024/01/15 08:07:30;;;;;;;13.80;5.60;;;;;;;;;;6302195;22;19990;-83
2024/01/15 08:10:15;;;;;;;15.85;6.03;;;;;;;;;;6303281;22;19995;-83
2024/01/15 08:13:03;;;;;;;11.98;5.63;;;;;;;;;;6303402;22;20139;-85
2024/01/15 08:15:48;;;;;;;13.77;5.75;;;;;;;;;;6304316;22;20001;-83
2024/01/15 08:18:33;;;;;;;16.55;7.10;;;;;;;;;;6301513;22;20010;-84
2024/01/15 08:21:19;;;;;;;15.60;5.95;;;;;;;;;;6302259;22;20070;-83
2024/01/15 08:24:04;;;;;;;17.95;6.88;;;;;;;;;;6302600;22;20021;-84
2024/01/15 08:26:50;;;;;;;12.25;6.13;;;;;;;;;;6298056;22;20493;-84
2024/01/15 08:29:35;;;;;;;11.88;5.45;;;;;;;;;;6296900;22;20474;-84
2024/01/15 08:32:21;;;;;;;18.02;6.85;;;;;;;;;;6297084;22;20390;-83
2024/01/15 08:35:06;;;;;;;12.02;5.78;;;;;;;;;;6296419;22;20074;-83
2024/01/15 08:37:52;;;;;;;14.13;5.60;;;;;;;;;;6301430;22;20003;-84
2024/01/15 08:40:37;;;;;;;14.10;5.93;;;;;;;;;;6302236;22;20026;-83
2024/01/15 08:43:22;;;;;;;14.70;5.70;;;;;;;;;;6300664;22;20010;-83
2024/01/15 08:46:07;;;;;;;13.23;5.82;;;;;;;;;;6303097;22;20308;-83
2024/01/15 08:48:53;;;;;;;11.38;5.13;;;;;;;;;;6303150;22;20629;-82
2024/01/15 08:51:39;;;;;;;13.38;5.10;;;;;;;;;;6301769;22;20361;-81
2024/01/15 08:54:24;;;;;;;17.77;6.07;;;;;;;;;;6300772;22;20030;-81
2024/01/15 08:57:09;;;;;;;14.50;5.53;;;;;;;;;;6302297;22;19997;-82
2024/01/15 08:59:54;;;;;;;10.95;4.75;;;;;;;;;;6302210;22;20290;-82
2024/01/15 09:02:39;;;;;;;13.00;5.43;;;;;;;;;;6300118;22;19998;-81
2024/01/15 09:05:25;;;;;;;7.50;4.15;;;;;;;;;;6300008;22;20026;-81
2024/01/15 09:08:10;;;;;;;10.73;4.90;;;;;;;;;;6297917;22;20002;-82
2024/01/15 09:10:55;;;;;;;9.80;4.97;;;;;;;;;;6294906;22;19995;-81
2024/01/15 09:13:41;;;;;;;10.30;4.32;;;;;;;;;;6296937;22;20854;-84
2024/01/15 09:16:26;;;;;;;12.57;4.45;;;;;;;;;;6295819;22;20026;-83
2024/01/15 09:19:11;;;;;;;13.02;4.07;;;;;;;;;;6296476;22;20010;-80
2024/01/15 09:21:56;;;;;;;8.65;3.90;;;;;;;;;;6299747;22;20421;-84
2024/01/15 09:24:41;;;;;;;10.48;3.85;;;;;;;;;;6302790;22;19999;-83
2024/01/15 09:27:27;;;;;;;8.98;4.10;;;;;;;;;;6300034;22;20044;-83
2024/01/15 09:30:12;;;;;;;8.10;3.50;;;;;;;;;;6300421;22;20033;-84
2024/01/15 09:32:58;;;;;;;10.23;4.25;;;;;;;;;;6302383;22;20386;-84
2024/01/15 09:35:43;;;;;;;10.50;4.28;;;;;;;;;;6302079;22;19999;-83
2024/01/15 09:38:28;;;;;;;10.40;3.63;;;;;;;;;;6299542;22;20003;-82
2024/01/15 09:41:14;;;;;;;8.98;4.22;;;;;;;;;;6302350;22;20064;-83
2024/01/15 09:43:59;;;;;;;8.50;3.75;;;;;;;;;;6302114;22;19999;-82
2024/01/15 09:46:45;;;;;;;9.05;4.20;;;;;;;;;;6306474;22;19995;-83
2024/01/15 09:49:30;;;;;;;10.07;3.67;;;;;;;;;;6301778;22;20049;-82
2024/01/15 09:52:17;;;;;;;8.65;3.75;;;;;;;;;;6301795;22;20385;-82
2024/01/15 09:55:03;;;;;;;10.65;4.68;;;;;;;;;;6299060;22;20475;-82
2024/01/15 09:57:49;;;;;;;10.23;4.32;;;;;;;;;;6299602;22;20003;-82
2024/01/15 10:00:38;;;;;;;10.73;4.90;;;;;;;;;;6299899;22;20005;-81
2024/01/15 10:03:24;;;;;;;;;;;;;;;;;;6298266;22;20028;-82
2024/01/15 10:06:10;;;;;;;9.57;4.68;;;;;;;;;;6299625;22;19907;-81
2024/01/15 10:08:57;;;;;;;9.77;4.07;;;;;;;;;;6301769;22;20330;-81
2024/01/15 10:11:43;;;;;;;9.43;4.15;;;;;;;;;;6302294;22;20420;-81
2024/01/15 10:14:32;;;;;;;9.80;4.60;;;;;;;;;;6304200;22;20052;-81
2024/01/15 10:17:17;;;;;;;8.18;3.90;;;;;;;;;;6302215;22;20393;-81
2024/01/15 10:20:07;;;;;;;9.02;3.75;;;;;;;;;;6304103;22;20001;-81
2024/01/15 10:22:52;;;;;;;9.75;3.67;;;;;;;;;;6303269;22;20060;-81
2024/01/15 10:25:37;;;;;;;7.72;3.67;;;;;;;;;;6301422;22;20335;-81
2024/01/15 10:28:22;;;;;;;12.98;4.60;;;;;;;;;;6302540;22;20002;-84
2024/01/15 10:31:08;;;;;;;10.25;3.92;;;;;;;;;;6304450;22;19995;-83
2024/01/15 10:33:53;;;;;;;7.95;3.75;;;;;;;;;;6304040;22;20455;-83
2024/01/15 10:36:45;;;;;;;7.88;3.40;;;;;;;;;;6300713;22;20055;-82
2024/01/15 10:39:31;;;;;;;8.90;3.30;;;;;;;;;;6301899;22;20013;-82
2024/01/15 10:42:18;;;;;;;9.80;4.07;;;;;;;;;;6299158;22;20005;-82
2024/01/15 10:45:03;;;;;;;9.00;4.25;;;;;;;;;;6296571;22;19994;-82
2024/01/15 10:47:51;;;;;;;11.75;4.03;;;;;;;;;;6297958;22;20006;-84
2024/01/15 10:50:36;;;;;;;8.07;3.75;;;;;;;;;;6296692;22;20651;-83
2024/01/15 10:53:22;;;;;;;7.13;3.05;;;;;;;;;;6297969;22;20069;-84
2024/01/15 10:56:09;;;;;;;9.23;3.70;;;;;;;;;;6301950;22;20082;-84
2024/01/15 10:58:55;;;;;;;7.95;3.45;;;;;;;;;;6303405;22;20003;-83
2024/01/15 11:01:42;;;;;;;15.02;3.72;;;;;;;;;;6303864;22;20086;-81
2024/01/15 11:04:28;;;;;;;10.18;4.13;;;;;;;;;;6301741;22;20007;-82
2024/01/15 11:07:13;;;;;;;8.93;3.70;;;;;;;;;;6303952;22;20007;-82
2024/01/15 11:09:59;;;;;;;19.15;5.38;;;;;;;;;;6303985;22;20005;-82
2024/01/15 11:12:47;;;;;;;9.15;4.65;;;;;;;;;;6279640;22;20090;-82
2024/01/15 11:15:32;;;;;;;8.82;3.65;;;;;;;;;;6301912;22;19999;-82
2024/01/15 11:18:17;;;;;;;8.57;3.58;;;;;;;;;;6303205;22;20003;-82
2024/01/15 11:21:18;;;;;;;7.95;4.35;;;;;;;;;;6303215;22;19994;-82
2024/01/15 11:24:06;;;;;;;8.90;3.92;;;;;;;;;;6297480;22;19994;-82
2024/01/15 11:26:54;;;;;;;10.60;4.30;;;;;;;;;;6297447;22;20034;-81
2024/01/15 11:29:39;;;;;;;10.82;4.60;;;;;;;;;;6297159;22;20884;-81
2024/01/15 11:32:33;;;;;;;13.65;4.10;;;;;;;;;;6298253;22;20027;-82
2024/01/15 11:35:18;;;;;;;9.85;4.40;;;;;;;;;;6300574;22;20306;-82
2024/01/15 11:38:05;;;;;;;10.70;5.00;;;;;;;;;;6299277;22;20007;-82
2024/01/15 11:40:50;;;;;;;11.65;4.50;;;;;;;;;;6304448;22;20072;-83
2024/01/15 11:43:35;;;;;;;12.25;4.93;;;;;;;;;;6303928;22;20003;-84
2024/01/15 11:46:20;;;;;;;11.07;4.82;;;;;;;;;;6301458;22;19998;-84
2024/01/15 11:49:07;;;;;;;10.10;4.93;;;;;;;;;;6303489;22;20518;-83
2024/01/15 11:51:54;;;;;;;9.50;4.80;;;;;;;;;;6303199;22;20478;-84
2024/01/15 11:54:39;;;;;;;9.88;5.00;;;;;;;;;;6300881;22;20562;-84
2024/01/15 11:57:41;;;;;;;10.40;5.22;;;;;;;;;;6301040;22;20423;-84
2024/01/15 12:00:26;;;;;;;8.02;4.55;;;;;;;;;;6301118;22;20013;-83
2024/01/15 12:03:11;;;;;;;13.55;5.93;;;;;;;;;;6302744;22;20010;-83
2024/01/15 12:05:57;;;;;;;12.32;4.68;;;;;;;;;;6299134;22;20036;-82
2024/01/15 12:08:43;;;;;;;10.23;4.70;;;;;;;;;;6301755;22;19995;-83
2024/01/15 12:11:32;;;;;;;13.25;5.18;;;;;;;;;;6296399;22;20063;-82
2024/01/15 12:14:18;;;;;;;;;;;;;;;;;;6299071;22;20219;-82
2024/01/15 12:17:06;;;;;;;8.32;3.90;;;;;;;;;;6295848;22;19899;-82
2024/01/15 12:19:51;;;;;;;11.05;5.00;;;;;;;;;;6298967;22;20010;-82
2024/01/15 12:22:37;;;;;;;18.60;5.93;;;;;;;;;;6302008;22;19999;-81
2024/01/15 12:25:23;;;;;;;11.82;4.82;;;;;;;;;;6300202;22;20174;-82
2024/01/15 12:28:09;;;;;;;10.90;5.00;;;;;;;;;;6303335;22;19995;-83
2024/01/15 12:30:55;;;;;;;8.77;4.63;;;;;;;;;;6302401;22;20034;-82
2024/01/15 12:33:40;;;;;;;9.48;5.20;;;;;;;;;;6299895;22;20397;-82
2024/01/15 12:36:27;;;;;;;12.40;5.40;;;;;;;;;;6299742;22;20003;-81
2024/01/15 12:39:12;;;;;;;10.98;5.47;;;;;;;;;;6302640;22;20362;-82
2024/01/15 12:41:57;;;;;;;10.93;5.30;;;;;;;;;;6301967;22;19999;-81
2024/01/15 12:44:44;;;;;;;13.38;5.25;;;;;;;;;;6297919;22;20003;-81
2024/01/15 12:47:30;;;;;;;11.05;5.10;;;;;;;;;;6296278;22;20082;-81
2024/01/15 12:50:16;;;;;;;11.88;5.13;;;;;;;;;;6298237;22;20007;-81
2024/01/15 12:53:01;;;;;;;13.00;5.22;;;;;;;;;;6295606;22;20055;-81
2024/01/15 12:55:47;;;;;;;14.23;5.72;;;;;;;;;;6296306;22;20712;-82
2024/01/15 12:58:32;;;;;;;12.55;5.22;;;;;;;;;;6296436;22;20003;-81
2024/01/15 13:01:17;;;;;;;11.43;5.18;;;;;;;;;;6298275;22;20001;-83
2024/01/15 13:04:03;;;;;;;10.75;5.25;;;;;;;;;;6296429;22;20046;-84
2024/01/15 13:06:49;;;;;;;9.93;5.22;;;;;;;;;;6302414;22;20002;-84
2024/01/15 13:09:35;;;;;;;13.55;6.30;;;;;;;;;;6302164;22;20025;-82
2024/01/15 13:12:20;;;;;;;11.65;5.40;;;;;;;;;;6298948;22;20041;-84
2024/01/15 13:15:11;;;;;;;10.95;5.07;;;;;;;;;;6301693;22;20006;-84
2024/01/15 13:17:56;;;;;;;9.98;5.43;;;;;;;;;;6302525;22;19995;-82
2024/01/15 13:20:42;;;;;;;9.68;4.45;;;;;;;;;;6302921;22;20022;-83
2024/01/15 13:23:27;;;;;;;11.00;4.57;;;;;;;;;;6299903;22;20005;-81
2024/01/15 13:26:12;;;;;;;14.45;5.13;;;;;;;;;;6302708;22;19999;-84
2024/01/15 13:28:59;;;;;;;11.18;4.28;;;;;;;;;;6301935;22;20023;-83
2024/01/15 13:31:46;;;;;;;8.73;4.45;;;;;;;;;;6296189;22;20060;-83
2024/01/15 13:34:31;;;;;;;10.10;4.18;;;;;;;;;;6298761;22;20331;-83
2024/01/15 13:37:16;;;;;;;9.57;3.78;;;;;;;;;;6299289;22;20074;-82
2024/01/15 13:40:03;;;;;;;9.80;3.63;;;;;;;;;;6296841;22;19999;-82
2024/01/15 13:42:48;;;;;;;6.35;3.53;;;;;;;;;;6299748;22;20002;-82
2024/01/15 13:45:35;;;;;;;20.67;6.20;;;;;;;;;;6302642;22;20360;-82
2024/01/15 13:48:20;;;;;;;7.60;3.55;;;;;;;;;;6300780;22;19991;-83
2024/01/15 13:51:06;;;;;;;6.32;3.88;;;;;;;;;;6303563;22;20006;-82
2024/01/15 13:53:51;;;;;;;7.47;3.58;;;;;;;;;;6303210;22;19999;-82
2024/01/15 13:56:36;;;;;;;7.53;3.25;;;;;;;;;;6302027;22;20372;-82
2024/01/15 13:59:22;;;;;;;9.43;3.22;;;;;;;;;;6301900;22;20006;-82
2024/01/15 14:02:08;;;;;;;5.88;2.75;;;;;;;;;;6305930;22;20462;-82
2024/01/15 14:04:53;;;;;;;6.95;3.25;;;;;;;;;;6327328;22;19987;-82
2024/01/15 14:07:39;;;;;;;6.47;3.55;;;;;;;;;;6316255;22;20460;-82
2024/01/15 14:10:24;;;;;;;6.82;3.30;;;;;;;;;;6330151;22;20046;-82
2024/01/15 14:13:10;;;;;;;6.03;3.22;;;;;;;;;;6333384;22;20002;-82
2024/01/15 14:15:55;;;;;;;9.30;3.38;;;;;;;;;;6327708;22;20042;-83
2024/01/15 14:18:41;;;;;;;8.93;3.95;;;;;;;;;;6325309;22;20006;-83
2024/01/15 14:21:26;;;;;;;8.43;3.28;;;;;;;;;;6282830;22;19995;-82
2024/01/15 14:24:11;;;;;;;6.80;3.60;;;;;;;;;;6297698;22;20589;-83
2024/01/15 14:26:56;;;;;;;8.35;2.75;;;;;;;;;;6296594;22;20006;-84
2024/01/15 14:29:42;;;;;;;8.00;3.65;;;;;;;;;;6296292;22;19995;-84
2024/01/15 14:32:27;;;;;;;10.10;3.90;;;;;;;;;;6298587;22;20003;-83
2024/01/15 14:35:13;;;;;;;7.22;2.35;;;;;;;;;;6278650;22;20069;-82
2024/01/15 14:37:58;;;;;;;5.20;2.97;;;;;;;;;;6301642;22;20003;-84
2024/01/15 14:40:44;;;;;;;8.77;3.00;;;;;;;;;;6304854;22;20009;-82
2024/01/15 14:43:29;;;;;;;7.60;2.70;;;;;;;;;;6311163;22;20002;-82
2024/01/15 14:46:14;;;;;;;6.60;3.42;;;;;;;;;;6312557;22;20124;-83
2024/01/15 14:48:59;;;;;;;8.25;3.17;;;;;;;;;;6303326;22;20041;-83
2024/01/15 14:51:45;;;;;;;8.63;2.90;;;;;;;;;;6303866;22;20001;-82
2024/01/15 14:54:30;;;;;;;7.05;3.40;;;;;;;;;;6302124;22;19999;-83
2024/01/15 14:57:15;;;;;;;6.90;3.60;;;;;;;;;;6303629;22;19999;-82
2024/01/15 15:00:01;;;;;;;7.45;3.45;;;;;;;;;;6301942;22;19999;-83
2024/01/15 15:02:47;;;;;;;6.57;3.45;;;;;;;;;;6298091;22;19999;-82
2024/01/15 15:05:32;;;;;;;9.40;3.63;;;;;;;;;;6297246;22;20009;-83
2024/01/15 15:08:17;;;;;;;6.43;3.50;;;;;;;;;;6299292;22;20459;-82
2024/01/15 15:11:03;;;;;;;6.55;3.53;;;;;;;;;;6297875;22;19998;-82
2024/01/15 15:13:49;;;;;;;7.10;3.38;;;;;;;;;;6299705;22;20086;-83
2024/01/15 15:16:34;;;;;;;9.45;3.17;;;;;;;;;;6296943;22;20041;-82
2024/01/15 15:19:20;;;;;;;10.48;3.80;;;;;;;;;;6300999;22;20048;-83
2024/01/15 15:22:05;;;;;;;8.02;3.75;;;;;;;;;;6303788;22;19994;-82
2024/01/15 15:24:50;;;;;;;8.85;4.53;;;;;;;;;;6303799;22;20440;-81
2024/01/15 15:27:36;;;;;;;7.78;4.18;;;;;;;;;;6301601;22;19999;-83
2024/01/15 15:30:21;;;;;;;6.80;3.53;;;;;;;;;;6300801;22;19998;-81
2024/01/15 15:33:06;;;;;;;9.10;3.78;;;;;;;;;;6303346;22;19994;-84
2024/01/15 15:35:51;;;;;;;6.25;3.65;;;;;;;;;;6303211;22;20102;-82
2024/01/15 15:38:37;;;;;;;7.00;3.83;;;;;;;;;;6300984;22;19994;-82
2024/01/15 15:41:25;;;;;;;7.32;3.90;;;;;;;;;;6303555;22;20010;-80
2024/01/15 15:44:12;;;;;;;9.00;4.20;;;;;;;;;;6303270;22;19998;-83
2024/01/15 15:46:57;;;;;;;7.95;3.78;;;;;;;;;;6305088;22;20003;-84
2024/01/15 15:49:43;;;;;;;7.43;3.85;;;;;;;;;;6298412;22;20001;-83
2024/01/15 15:52:28;;;;;;;10.10;3.95;;;;;;;;;;6297535;22;20109;-83
2024/01/15 15:55:13;;;;;;;7.18;3.85;;;;;;;;;;6299421;22;20413;-83
2024/01/15 15:57:58;;;;;;;6.28;3.22;;;;;;;;;;6296417;22;20423;-83
2024/01/15 16:00:44;;;;;;;8.30;4.10;;;;;;;;;;6297342;22;20056;-81
2024/01/15 16:03:31;;;;;;;9.50;4.03;;;;;;;;;;6296162;22;19999;-82
2024/01/15 16:06:16;;;;;;;10.15;5.50;;;;;;;;;;6298580;22;20371;-82
2024/01/15 16:09:02;;;;;;;7.25;3.53;;;;;;;;;;6303098;22;20002;-83
2024/01/15 16:11:50;;;;;;;8.95;4.63;;;;;;;;;;6302475;22;20025;-83
2024/01/15 16:14:36;;;;;;;8.60;4.50;;;;;;;;;;6302767;22;20697;-83
2024/01/15 16:17:21;;;;;;;8.88;4.47;;;;;;;;;;6301287;22;20076;-82
2024/01/15 16:20:07;;;;;;;8.45;4.53;;;;;;;;;;6303465;22;19991;-82
2024/01/15 16:22:52;;;;;;;11.07;5.32;;;;;;;;;;6302155;22;19999;-82
2024/01/15 16:25:37;;;;;;;8.60;4.20;;;;;;;;;;6300977;22;20073;-82
2024/01/15 16:28:23;;;;;;;6.72;3.70;;;;;;;;;;6301437;22;20272;-82